Mount Hope, Kansas
Current Conditions -  °F | °C
As of 4:52 AM on Saturday 22 Nov 2014 (Local Time) from KHUT Reporting Station
Haze Haze  
Wind Chill: 38°   Ceiling: 300
Heat Index: 42°   Visibility: 1.2mi
Dew Point: 40°   Wind: 7mph
Humidity: 92%   Direction: 180°S
Pressure: 29.97"   Gusts: NA
Location:  37.87°N, 97.67°W
Report Text: KHUT 221052Z AUTO 18006KT 1 1/4SM R13/6000VP6000FT BR OVC003 06/04 A2997 RMK AO2 SLP149 T00560044 $
Loading
Personal Weather Stations






























Interactive Weather Map New forecast layout! Learn more

10-Day Weather Forecast

Advertisements
Track Severe Weather on mobile